Time;durP1;ratioP1;P1;durP2;ratioP2;P2;SDS_P1;SDS_P2;PMS_P1;PMS_P2;Temp;Humidity;BMP_temperature;BMP_pressure;BME280_temperature;BME280_humidity;BME280_pressure;Samples;Min_cycle;Max_cycle;Signal;HPM_P1;HPM_P2
2024/03/16 00:00:46;;;;;;;13.43;2.20;;;11.40;99.90;;;;;;4968602;28;20078;-84
2024/03/16 00:03:12;;;;;;;19.05;2.22;;;11.40;99.90;;;;;;4972592;28;20122;-84
2024/03/16 00:05:38;;;;;;;16.85;2.33;;;11.30;99.90;;;;;;4975949;28;20037;-84
2024/03/16 00:08:04;;;;;;;19.95;2.53;;;11.30;99.90;;;;;;4975461;28;20039;-85
2024/03/16 00:10:31;;;;;;;11.35;1.73;;;11.30;99.90;;;;;;4975914;28;20049;-84
2024/03/16 00:12:56;;;;;;;15.50;2.45;;;11.30;99.90;;;;;;4967508;28;20038;-84
2024/03/16 00:15:22;;;;;;;22.25;2.78;;;11.30;99.90;;;;;;4974619;28;20031;-84
2024/03/16 00:17:49;;;;;;;20.70;2.58;;;11.30;99.90;;;;;;4971252;28;20073;-84
2024/03/16 00:20:17;;;;;;;22.85;2.72;;;11.30;99.90;;;;;;4975318;28;20034;-84
2024/03/16 00:22:42;;;;;;;20.92;3.00;;;11.30;99.90;;;;;;4976222;28;20030;-84
2024/03/16 00:25:08;;;;;;;22.35;2.97;;;11.30;99.90;;;;;;4972992;28;20039;-84
2024/03/16 00:27:34;;;;;;;17.90;2.72;;;11.30;99.90;;;;;;4958780;28;20042;-84
2024/03/16 00:30:00;;;;;;;20.70;2.70;;;11.30;99.90;;;;;;4975372;28;20019;-84
2024/03/16 00:32:26;;;;;;;19.45;3.20;;;11.30;99.90;;;;;;4975182;28;20026;-84
2024/03/16 00:34:52;;;;;;;19.45;3.20;;;11.30;99.90;;;;;;4963440;28;20037;-84
2024/03/16 00:37:18;;;;;;;20.25;4.25;;;11.20;99.90;;;;;;4975611;28;20023;-84
2024/03/16 00:39:43;;;;;;;17.83;4.47;;;11.10;99.90;;;;;;4975706;28;20022;-84
2024/03/16 00:42:12;;;;;;;17.73;4.40;;;11.10;99.90;;;;;;4968240;28;20030;-84
2024/03/16 00:44:37;;;;;;;19.45;4.90;;;11.00;99.90;;;;;;4956451;28;20023;-84
2024/03/16 00:47:03;;;;;;;18.08;5.35;;;10.90;99.90;;;;;;4966198;28;20465;-85
2024/03/16 00:49:29;;;;;;;24.35;5.60;;;10.90;99.90;;;;;;4974690;28;20073;-85
2024/03/16 00:51:55;;;;;;;22.20;5.88;;;10.90;99.90;;;;;;4966757;28;20027;-84
2024/03/16 00:54:20;;;;;;;23.05;4.90;;;10.80;99.90;;;;;;4977639;28;20121;-84
2024/03/16 00:56:46;;;;;;;17.30;5.38;;;10.80;99.90;;;;;;4971995;28;20027;-84
2024/03/16 00:59:12;;;;;;;19.15;5.90;;;10.80;99.90;;;;;;4974089;28;20090;-84
2024/03/16 01:01:38;;;;;;;18.58;4.93;;;10.80;99.90;;;;;;4979126;28;20027;-84
2024/03/16 01:04:04;;;;;;;21.77;6.18;;;10.80;99.90;;;;;;4967524;28;20048;-85
2024/03/16 01:06:30;;;;;;;21.80;5.45;;;10.80;99.90;;;;;;4979258;28;20061;-85
2024/03/16 01:08:56;;;;;;;21.95;5.68;;;10.70;99.90;;;;;;4979020;28;20022;-85
2024/03/16 01:11:23;;;;;;;18.42;5.28;;;10.80;99.90;;;;;;4978746;28;20030;-84
2024/03/16 01:13:49;;;;;;;19.55;5.35;;;10.70;99.90;;;;;;4978435;28;20022;-85
2024/03/16 01:16:15;;;;;;;20.42;5.90;;;10.70;99.90;;;;;;4960516;28;20141;-84
2024/03/16 01:18:40;;;;;;;28.00;6.05;;;10.70;99.90;;;;;;4974716;28;20113;-85
2024/03/16 01:21:06;;;;;;;24.42;6.60;;;10.70;99.90;;;;;;4972390;28;20026;-85
2024/03/16 01:23:35;;;;;;;20.73;6.13;;;10.70;99.90;;;;;;4978798;28;20026;-85
2024/03/16 01:26:00;;;;;;;24.23;5.63;;;10.70;99.90;;;;;;4972975;28;20041;-84
2024/03/16 01:28:26;;;;;;;25.67;5.15;;;10.60;99.90;;;;;;4978693;28;20034;-84
2024/03/16 01:30:52;;;;;;;20.08;5.45;;;10.70;99.90;;;;;;4979175;28;20501;-85
2024/03/16 01:33:18;;;;;;;20.67;4.45;;;10.70;99.90;;;;;;4968278;28;20121;-84
2024/03/16 01:35:44;;;;;;;21.27;5.43;;;10.60;99.90;;;;;;4970276;28;20548;-84
2024/03/16 01:38:10;;;;;;;20.45;5.57;;;10.70;99.90;;;;;;4978439;28;20027;-85
2024/03/16 01:40:35;;;;;;;25.02;6.13;;;10.60;99.90;;;;;;4978509;28;20026;-85
2024/03/16 01:43:02;;;;;;;17.35;4.15;;;10.60;99.90;;;;;;4978222;28;20398;-85
2024/03/16 01:45:28;;;;;;;16.73;4.57;;;10.60;99.90;;;;;;4988707;28;20065;-84
2024/03/16 01:47:54;;;;;;;16.35;5.03;;;10.60;99.90;;;;;;4977977;28;20106;-85
2024/03/16 01:50:21;;;;;;;20.38;5.72;;;10.60;99.90;;;;;;4978406;28;20085;-85
2024/03/16 01:52:47;;;;;;;26.15;6.10;;;10.60;99.90;;;;;;4976538;28;20598;-84
2024/03/16 01:55:14;;;;;;;19.00;6.15;;;10.60;99.90;;;;;;4974687;28;20023;-85
2024/03/16 01:57:40;;;;;;;26.13;6.35;;;10.60;99.90;;;;;;4987046;28;20030;-85
2024/03/16 02:00:06;;;;;;;21.73;7.05;;;10.60;99.90;;;;;;4978622;28;20196;-83
2024/03/16 02:02:36;;;;;;;22.67;6.50;;;10.60;99.90;;;;;;4978117;28;20034;-84
2024/03/16 02:05:06;;;;;;;27.20;7.80;;;10.60;99.90;;;;;;4974959;28;20455;-85
2024/03/16 02:07:33;;;;;;;23.00;6.82;;;10.60;99.90;;;;;;4972308;28;20038;-84
2024/03/16 02:10:08;;;;;;;26.05;8.15;;;10.60;99.90;;;;;;4977464;28;20394;-84
2024/03/16 02:12:34;;;;;;;30.20;8.07;;;10.60;99.90;;;;;;4991209;28;20640;-84
2024/03/16 02:15:00;;;;;;;21.30;7.70;;;10.60;99.90;;;;;;4978083;28;20026;-84
2024/03/16 02:17:26;;;;;;;25.52;8.10;;;10.60;99.90;;;;;;4967624;28;20496;-84
2024/03/16 02:19:52;;;;;;;18.00;6.88;;;10.60;99.90;;;;;;4977907;28;20026;-84
2024/03/16 02:22:19;;;;;;;30.75;8.63;;;10.60;99.90;;;;;;4994785;28;20061;-84
2024/03/16 02:24:47;;;;;;;24.70;7.40;;;10.60;99.90;;;;;;4977976;28;20022;-84
2024/03/16 02:27:13;;;;;;;31.05;8.38;;;10.60;99.90;;;;;;4974995;28;20092;-84
2024/03/16 02:29:39;;;;;;;24.33;9.23;;;10.60;99.90;;;;;;4977552;28;20510;-84
2024/03/16 02:32:06;;;;;;;33.58;9.00;;;10.60;99.90;;;;;;4973481;28;20121;-84
2024/03/16 02:34:36;;;;;;;31.20;9.57;;;10.60;99.90;;;;;;4975704;28;20030;-84
2024/03/16 02:37:05;;;;;;;21.73;7.40;;;10.60;99.90;;;;;;4977311;28;20022;-84
2024/03/16 02:39:34;;;;;;;26.35;8.30;;;10.60;99.90;;;;;;4961324;28;20030;-84
2024/03/16 02:42:02;;;;;;;35.33;9.90;;;10.60;99.90;;;;;;4977179;28;20391;-84
2024/03/16 02:44:29;;;;;;;33.70;10.00;;;10.60;99.90;;;;;;4974308;28;20126;-84
2024/03/16 02:46:56;;;;;;;37.28;10.90;;;10.60;99.90;;;;;;4966963;28;20038;-84
2024/03/16 02:49:22;;;;;;;34.00;11.68;;;10.60;99.90;;;;;;4971781;28;20034;-84
2024/03/16 02:51:48;;;;;;;35.85;11.27;;;10.60;99.90;;;;;;4958204;28;20360;-84
2024/03/16 02:54:15;;;;;;;33.22;10.35;;;10.60;99.90;;;;;;4972362;28;20019;-85
2024/03/16 02:56:41;;;;;;;27.83;7.20;;;10.50;99.90;;;;;;4976908;28;20027;-84
2024/03/16 02:59:07;;;;;;;31.00;7.53;;;10.30;99.90;;;;;;4973314;28;20038;-84
2024/03/16 03:01:33;;;;;;;22.52;7.00;;;10.20;99.90;;;;;;4970818;28;20496;-84
2024/03/16 03:03:59;;;;;;;18.55;5.90;;;10.10;99.90;;;;;;4972684;28;20031;-84
2024/03/16 03:06:27;;;;;;;17.73;5.10;;;10.20;99.90;;;;;;4962232;28;20050;-84
2024/03/16 03:08:53;;;;;;;12.35;4.32;;;10.10;99.90;;;;;;4969199;28;20074;-84
2024/03/16 03:11:22;;;;;;;13.18;3.83;;;10.10;99.90;;;;;;4968143;28;20078;-84
2024/03/16 03:13:48;;;;;;;16.45;3.72;;;9.90;99.90;;;;;;4974745;28;20475;-85
2024/03/16 03:16:20;;;;;;;10.30;3.47;;;9.80;99.90;;;;;;4973395;28;20023;-85
2024/03/16 03:18:46;;;;;;;;;;;9.70;99.90;;;;;;4975082;28;20114;-84
2024/03/16 03:21:12;;;;;;;15.45;3.60;;;9.60;99.90;;;;;;4973131;28;20282;-84
2024/03/16 03:23:38;;;;;;;13.32;3.58;;;9.60;99.90;;;;;;4963444;28;20031;-84
2024/03/16 03:26:04;;;;;;;11.75;3.40;;;9.50;99.90;;;;;;4963305;28;20122;-84
2024/03/16 03:28:29;;;;;;;10.25;4.05;;;9.50;99.90;;;;;;4962646;28;20042;-84
2024/03/16 03:30:55;;;;;;;14.43;4.50;;;9.50;99.90;;;;;;4972985;28;20019;-84
2024/03/16 03:33:20;;;;;;;13.52;3.92;;;9.50;99.90;;;;;;4972612;28;20027;-85
2024/03/16 03:35:46;;;;;;;8.27;3.35;;;9.50;99.90;;;;;;4972181;28;20058;-85
2024/03/16 03:38:12;;;;;;;9.77;3.22;;;9.50;99.90;;;;;;4953829;28;20042;-84
2024/03/16 03:40:37;;;;;;;7.55;3.83;;;9.50;99.90;;;;;;4964549;28;20408;-84
2024/03/16 03:43:05;;;;;;;9.93;4.57;;;9.40;99.90;;;;;;4972897;28;20113;-84
2024/03/16 03:50:57;;;;;;;11.38;3.45;;;9.30;99.90;;;;;;4970499;28;20034;-85
2024/03/16 03:53:24;;;;;;;8.18;3.17;;;9.20;99.90;;;;;;4967044;28;20030;-84
2024/03/16 03:55:50;;;;;;;10.70;3.35;;;9.20;99.90;;;;;;4972333;28;20026;-84
2024/03/16 03:58:16;;;;;;;10.23;3.47;;;9.00;99.90;;;;;;4972624;28;20507;-84
2024/03/16 04:00:45;;;;;;;5.32;2.70;;;9.00;99.90;;;;;;4971802;28;20078;-84
2024/03/16 04:03:11;;;;;;;5.72;3.08;;;9.00;99.90;;;;;;4953614;28;20110;-84
2024/03/16 04:05:37;;;;;;;6.80;2.65;;;8.90;99.90;;;;;;4960667;28;20165;-84
2024/03/16 04:08:05;;;;;;;6.43;2.88;;;8.80;99.90;;;;;;4972469;28;20516;-84
2024/03/16 04:10:31;;;;;;;5.85;2.05;;;8.80;99.90;;;;;;4966438;28;20391;-84
2024/03/16 04:12:56;;;;;;;6.13;2.92;;;8.70;99.90;;;;;;4959887;28;20019;-85
2024/03/16 04:15:22;;;;;;;7.38;3.28;;;8.70;99.90;;;;;;4972107;28;20034;-84
2024/03/16 04:17:48;;;;;;;7.05;2.35;;;8.60;99.90;;;;;;4967190;28;20106;-84
2024/03/16 04:20:14;;;;;;;7.70;3.15;;;8.70;99.90;;;;;;4969966;28;20166;-84
2024/03/16 04:22:41;;;;;;;11.40;3.20;;;8.60;99.90;;;;;;4972622;28;20027;-84
2024/03/16 04:25:08;;;;;;;6.57;3.33;;;8.60;99.90;;;;;;4972315;28;20019;-84
2024/03/16 04:27:33;;;;;;;6.93;2.97;;;8.60;99.90;;;;;;4972557;28;20031;-84
2024/03/16 04:29:59;;;;;;;7.60;2.60;;;8.60;99.90;;;;;;4975648;28;20113;-84
2024/03/16 04:32:26;;;;;;;13.15;3.40;;;8.60;99.90;;;;;;4973867;28;20738;-84
2024/03/16 04:34:55;;;;;;;11.38;3.05;;;8.50;99.90;;;;;;4967627;28;20031;-85
2024/03/16 04:37:21;;;;;;;10.52;2.05;;;8.50;99.90;;;;;;4977031;28;20023;-84
2024/03/16 04:39:47;;;;;;;6.22;1.80;;;8.50;99.90;;;;;;4962395;28;20387;-85
2024/03/16 04:42:13;;;;;;;5.15;1.98;;;8.40;99.90;;;;;;4960971;28;20480;-85
2024/03/16 04:44:40;;;;;;;7.53;1.52;;;8.30;99.90;;;;;;4970686;28;20479;-84
2024/03/16 04:47:05;;;;;;;4.63;1.75;;;8.30;99.90;;;;;;4976374;28;20069;-85
2024/03/16 04:49:31;;;;;;;7.05;2.40;;;8.30;99.90;;;;;;4976619;28;20026;-85
2024/03/16 04:51:57;;;;;;;4.55;1.73;;;8.30;99.90;;;;;;4971687;28;20027;-85
2024/03/16 04:54:23;;;;;;;5.70;2.25;;;8.30;99.90;;;;;;4960637;28;20042;-85
2024/03/16 04:56:49;;;;;;;7.15;2.13;;;8.30;99.90;;;;;;4976524;28;20023;-85
2024/03/16 04:59:14;;;;;;;6.22;1.77;;;8.30;99.90;;;;;;4975751;28;20419;-85
2024/03/16 05:01:40;;;;;;;8.93;1.95;;;8.30;99.90;;;;;;4975910;28;20110;-85
2024/03/16 05:04:07;;;;;;;7.00;2.65;;;8.30;99.90;;;;;;4973423;28;20027;-84
2024/03/16 05:06:34;;;;;;;7.10;3.45;;;8.30;99.90;;;;;;4961057;28;20041;-85
2024/03/16 05:09:05;;;;;;;7.28;3.47;;;8.30;99.90;;;;;;4966464;28;20027;-85
2024/03/16 05:11:30;;;;;;;5.68;2.50;;;8.40;99.90;;;;;;4975701;28;20066;-85
2024/03/16 05:13:58;;;;;;;7.00;2.50;;;8.30;99.90;;;;;;4975634;28;20057;-85
2024/03/16 05:16:23;;;;;;;7.80;3.25;;;8.40;99.90;;;;;;4967940;28;20625;-85
2024/03/16 05:18:49;;;;;;;6.88;3.05;;;8.30;99.90;;;;;;4975409;28;20055;-85
2024/03/16 05:21:15;;;;;;;5.75;2.72;;;8.40;99.90;;;;;;4975218;28;20038;-84
2024/03/16 05:23:45;;;;;;;8.70;3.72;;;8.30;99.90;;;;;;4975602;28;20411;-85
2024/03/16 05:26:10;;;;;;;6.97;4.03;;;8.40;99.90;;;;;;4973550;28;20501;-85
2024/03/16 05:28:36;;;;;;;7.63;3.88;;;8.30;99.90;;;;;;4963606;28;20027;-85
2024/03/16 05:31:02;;;;;;;8.52;3.70;;;8.30;99.90;;;;;;4972781;28;20034;-84
2024/03/16 05:33:27;;;;;;;8.43;4.35;;;8.30;99.90;;;;;;4969563;28;20028;-85
2024/03/16 05:35:53;;;;;;;9.75;4.10;;;8.40;99.90;;;;;;4964445;28;20057;-85
2024/03/16 05:38:19;;;;;;;10.52;3.80;;;8.30;99.90;;;;;;4975465;28;20025;-85
2024/03/16 05:40:47;;;;;;;7.85;4.05;;;8.30;99.90;;;;;;4973663;28;20162;-85
2024/03/16 05:43:12;;;;;;;10.20;3.85;;;8.20;99.90;;;;;;4974653;28;20026;-85
2024/03/16 05:45:38;;;;;;;8.55;3.63;;;8.20;99.90;;;;;;4974904;28;20483;-85
2024/03/16 05:48:04;;;;;;;8.90;3.17;;;8.20;99.90;;;;;;4968395;28;20395;-84
2024/03/16 05:50:29;;;;;;;6.68;3.42;;;8.20;99.90;;;;;;4973581;28;20030;-84
2024/03/16 05:52:55;;;;;;;6.22;2.53;;;8.20;99.90;;;;;;4972969;28;20603;-85
2024/03/16 05:55:21;;;;;;;12.10;3.83;;;8.20;99.90;;;;;;4963277;28;20436;-85
2024/03/16 05:57:46;;;;;;;4.32;2.90;;;8.20;99.90;;;;;;4963514;28;20049;-85
2024/03/16 06:00:15;;;;;;;9.52;3.13;;;8.20;99.90;;;;;;4974280;28;20059;-85
2024/03/16 06:02:41;;;;;;;9.55;3.03;;;8.20;99.90;;;;;;4974544;28;20514;-85
2024/03/16 06:05:07;;;;;;;9.30;2.70;;;8.20;99.90;;;;;;4971253;28;20027;-85
2024/03/16 06:07:33;;;;;;;11.23;2.90;;;8.20;99.90;;;;;;4972774;28;20046;-84
2024/03/16 06:09:59;;;;;;;10.10;2.85;;;8.20;99.90;;;;;;4974688;28;20031;-85
2024/03/16 06:12:27;;;;;;;8.00;2.25;;;8.20;99.90;;;;;;4969427;28;20472;-85
2024/03/16 06:14:53;;;;;;;9.63;2.75;;;8.20;99.90;;;;;;4968775;28;20038;-84
2024/03/16 06:17:19;;;;;;;9.20;2.85;;;8.20;99.90;;;;;;4972507;28;20562;-85
2024/03/16 06:19:44;;;;;;;9.23;2.72;;;8.20;99.90;;;;;;4971947;28;20055;-83
2024/03/16 06:22:10;;;;;;;7.35;1.85;;;8.20;99.90;;;;;;4974105;28;20065;-85
2024/03/16 06:24:36;;;;;;;8.23;2.10;;;8.20;99.90;;;;;;4974568;28;20061;-84
2024/03/16 06:27:05;;;;;;;4.15;0.70;;;8.10;99.90;;;;;;4970551;28;20745;-85
2024/03/16 06:29:34;;;;;;;2.47;0.30;;;8.10;99.90;;;;;;4963038;28;20023;-85
2024/03/16 06:32:06;;;;;;;3.67;0.40;;;8.00;99.90;;;;;;4974300;28;20027;-85
2024/03/16 06:34:35;;;;;;;3.95;0.30;;;7.80;99.90;;;;;;4974504;28;20029;-86
2024/03/16 06:37:01;;;;;;;5.47;1.60;;;7.70;99.90;;;;;;4965657;28;20163;-85
2024/03/16 06:39:27;;;;;;;8.27;0.82;;;7.60;99.90;;;;;;4970551;28;20469;-85
2024/03/16 06:41:53;;;;;;;6.90;1.00;;;7.50;99.90;;;;;;4973716;28;20038;-85
2024/03/16 06:44:18;;;;;;;3.88;0.60;;;7.50;99.90;;;;;;4973939;28;20109;-84
2024/03/16 06:46:44;;;;;;;3.00;0.70;;;7.50;99.90;;;;;;4962774;28;20031;-85
2024/03/16 06:49:10;;;;;;;6.53;0.82;;;7.50;99.90;;;;;;4973995;28;20038;-85
2024/03/16 06:51:36;;;;;;;5.63;0.70;;;7.50;99.90;;;;;;4970185;28;20023;-85
2024/03/16 06:54:01;;;;;;;8.45;1.10;;;7.60;99.90;;;;;;4973576;28;20070;-85
2024/03/16 06:56:27;;;;;;;8.05;0.90;;;7.60;99.90;;;;;;4971522;28;20093;-86
2024/03/16 06:58:52;;;;;;;5.15;0.50;;;7.60;99.90;;;;;;4973539;28;20061;-86
2024/03/16 07:01:18;;;;;;;6.65;0.40;;;7.60;99.90;;;;;;4972368;28;20049;-85
2024/03/16 07:03:44;;;;;;;6.53;0.50;;;7.70;99.90;;;;;;4966277;28;20030;-85
2024/03/16 07:06:09;;;;;;;6.32;0.40;;;7.80;99.90;;;;;;4976930;28;20085;-85
2024/03/16 07:08:38;;;;;;;5.88;0.52;;;7.80;99.90;;;;;;4971209;28;20023;-85
2024/03/16 07:11:07;;;;;;;4.90;0.40;;;7.80;99.90;;;;;;4976824;28;20026;-85
2024/03/16 07:13:32;;;;;;;6.72;0.52;;;7.70;99.90;;;;;;4976893;28;20034;-85
2024/03/16 07:15:58;;;;;;;3.70;0.20;;;7.70;99.90;;;;;;4976872;28;20037;-89
2024/03/16 07:18:24;;;;;;;4.47;0.50;;;7.70;99.90;;;;;;4961913;28;20034;-84
2024/03/16 07:20:49;;;;;;;6.88;0.50;;;7.80;99.90;;;;;;4973327;28;20406;-85
2024/03/16 07:23:15;;;;;;;4.93;0.68;;;7.80;99.90;;;;;;4976425;28;20038;-85
2024/03/16 07:25:43;;;;;;;4.63;0.20;;;7.80;99.90;;;;;;4975594;28;20029;-85
2024/03/16 07:28:09;;;;;;;4.28;0.63;;;7.90;99.90;;;;;;4971893;28;20045;-85
2024/03/16 07:30:35;;;;;;;9.90;0.50;;;7.90;99.90;;;;;;4992586;28;20038;-85
2024/03/16 07:33:02;;;;;;;9.10;0.40;;;7.90;99.90;;;;;;4976158;28;20034;-85
2024/03/16 07:35:28;;;;;;;4.60;0.93;;;7.90;99.90;;;;;;4972251;28;20030;-85
2024/03/16 07:37:55;;;;;;;5.47;0.40;;;8.00;99.90;;;;;;4974407;28;20025;-84
2024/03/16 07:40:21;;;;;;;10.38;0.50;;;8.00;99.90;;;;;;4974117;28;20113;-85
2024/03/16 07:42:48;;;;;;;7.18;0.40;;;8.10;99.90;;;;;;4975139;28;20080;-85
2024/03/16 07:45:15;;;;;;;5.63;0.30;;;8.10;99.90;;;;;;4976264;28;20121;-85
2024/03/16 07:47:41;;;;;;;2.13;0.30;;;8.10;99.90;;;;;;4993541;28;20034;-85
2024/03/16 07:50:07;;;;;;;6.90;0.50;;;8.20;99.90;;;;;;4976332;28;20076;-85
2024/03/16 07:52:33;;;;;;;3.75;0.45;;;8.20;99.90;;;;;;4965513;28;20402;-86
2024/03/16 07:55:00;;;;;;;5.95;0.40;;;8.30;99.90;;;;;;4970686;28;20113;-85
2024/03/16 07:57:27;;;;;;;3.67;0.38;;;8.30;99.90;;;;;;4975600;28;20026;-85
2024/03/16 07:59:53;;;;;;;6.03;0.30;;;8.40;99.90;;;;;;4974231;28;20053;-84
2024/03/16 08:02:19;;;;;;;6.03;0.45;;;8.40;99.90;;;;;;4975129;28;20026;-84
2024/03/16 08:04:45;;;;;;;5.55;0.38;;;8.50;99.90;;;;;;4971280;28;20081;-84
2024/03/16 08:07:11;;;;;;;8.65;1.10;;;8.50;99.90;;;;;;4970616;28;20192;-84
2024/03/16 08:09:37;;;;;;;9.65;0.30;;;8.50;99.90;;;;;;4975576;28;20113;-84
2024/03/16 08:12:03;;;;;;;5.60;0.45;;;8.50;99.90;;;;;;4959271;28;20057;-85
2024/03/16 08:14:34;;;;;;;2.70;0.30;;;8.50;99.90;;;;;;4970562;28;20022;-84
2024/03/16 08:17:06;;;;;;;4.22;0.22;;;8.40;99.90;;;;;;4975463;28;20494;-84
2024/03/16 08:19:31;;;;;;;3.60;0.40;;;8.40;99.90;;;;;;4970798;28;20018;-84
2024/03/16 08:21:57;;;;;;;1.83;0.25;;;8.40;99.90;;;;;;4975334;28;20081;-84
2024/03/16 08:24:23;;;;;;;7.05;0.30;;;8.60;99.90;;;;;;4969048;28;20113;-84
2024/03/16 08:26:48;;;;;;;12.00;0.52;;;8.60;99.90;;;;;;4975525;28;20298;-83
2024/03/16 08:29:14;;;;;;;4.68;0.40;;;8.70;99.90;;;;;;4974960;28;20030;-84
2024/03/16 08:31:40;;;;;;;18.55;1.88;;;8.70;99.90;;;;;;4974007;28;20085;-85
2024/03/16 08:34:05;;;;;;;4.95;0.30;;;8.70;99.90;;;;;;4967177;28;20019;-85
2024/03/16 08:36:31;;;;;;;4.70;0.25;;;8.70;99.90;;;;;;4986900;28;20022;-85
2024/03/16 08:38:56;;;;;;;3.65;0.30;;;8.80;99.90;;;;;;4974737;28;20054;-83
2024/03/16 08:41:22;;;;;;;3.10;0.52;;;8.80;99.90;;;;;;4968692;28;20027;-85
2024/03/16 08:43:48;;;;;;;4.10;0.20;;;8.80;99.90;;;;;;4971190;28;20054;-84
2024/03/16 08:46:14;;;;;;;5.63;0.57;;;8.90;99.90;;;;;;4969441;28;20471;-84
2024/03/16 08:48:40;;;;;;;4.93;0.32;;;9.00;99.90;;;;;;4991343;28;20060;-85
2024/03/16 08:51:05;;;;;;;5.75;0.45;;;9.00;99.90;;;;;;4972839;28;20382;-85
2024/03/16 08:53:31;;;;;;;6.72;0.50;;;9.00;99.90;;;;;;4972933;28;20038;-85
2024/03/16 08:55:58;;;;;;;2.35;0.20;;;9.10;99.90;;;;;;4975020;28;20022;-84
2024/03/16 08:58:25;;;;;;;7.03;0.30;;;9.20;99.90;;;;;;4975595;28;20030;-85
2024/03/16 09:00:53;;;;;;;3.88;0.20;;;9.40;99.90;;;;;;4984634;28;20045;-85
2024/03/16 09:03:20;;;;;;;7.38;0.28;;;9.50;99.90;;;;;;4975659;28;20038;-84
2024/03/16 09:05:45;;;;;;;3.35;0.30;;;9.50;99.90;;;;;;4974866;28;20471;-84
2024/03/16 09:08:11;;;;;;;1.50;0.10;;;9.60;99.90;;;;;;4970650;28;20105;-85
2024/03/16 09:10:37;;;;;;;0.85;0.13;;;9.60;99.90;;;;;;4973464;28;20030;-85
2024/03/16 09:13:03;;;;;;;3.03;0.20;;;9.60;99.90;;;;;;4975617;28;20034;-84
2024/03/16 09:15:28;;;;;;;5.20;0.75;;;9.60;99.90;;;;;;4977676;28;20458;-85
2024/03/16 09:17:54;;;;;;;6.28;0.30;;;9.60;99.90;;;;;;4979419;28;20054;-84
2024/03/16 09:20:20;;;;;;;4.18;0.50;;;9.70;99.90;;;;;;4977107;28;20483;-85
2024/03/16 09:22:45;;;;;;;0.90;0.20;;;9.60;99.90;;;;;;4975000;28;20034;-85
2024/03/16 09:25:11;;;;;;;6.30;0.30;;;9.60;99.90;;;;;;4973851;28;20042;-84
2024/03/16 09:27:37;;;;;;;1.85;0.60;;;9.50;99.90;;;;;;4960331;28;20495;-84
2024/03/16 09:30:08;;;;;;;4.30;0.43;;;9.50;99.90;;;;;;4967551;28;20516;-84
2024/03/16 09:32:34;;;;;;;5.05;0.50;;;9.50;99.90;;;;;;4978747;28;20030;-85
2024/03/16 09:35:00;;;;;;;5.32;0.43;;;9.40;99.90;;;;;;4978366;28;20372;-84
2024/03/16 09:37:25;;;;;;;5.70;0.30;;;9.40;99.90;;;;;;4977143;28;20034;-84
2024/03/16 09:39:51;;;;;;;9.07;0.30;;;9.30;99.90;;;;;;4977275;28;20407;-85
2024/03/16 09:42:17;;;;;;;6.38;0.40;;;9.30;99.90;;;;;;4981698;28;20040;-83
2024/03/16 09:44:45;;;;;;;9.75;0.70;;;9.10;99.90;;;;;;4974374;28;20372;-83
2024/03/16 09:47:15;;;;;;;7.80;0.45;;;9.00;99.90;;;;;;4965931;28;20256;-83
2024/03/16 09:49:41;;;;;;;4.60;0.60;;;8.90;99.90;;;;;;4976879;28;20478;-83
2024/03/16 09:52:13;;;;;;;8.88;0.38;;;8.90;99.90;;;;;;4979687;28;20474;-84
2024/03/16 09:54:40;;;;;;;2.60;0.38;;;8.90;99.90;;;;;;4977565;28;20037;-83
2024/03/16 09:57:16;;;;;;;5.32;0.38;;;8.90;99.90;;;;;;4977348;28;20109;-84
2024/03/16 09:59:48;;;;;;;9.43;0.50;;;8.90;99.90;;;;;;4966505;28;20080;-84
2024/03/16 10:02:23;;;;;;;6.68;0.50;;;9.00;99.90;;;;;;4974831;28;20027;-84
2024/03/16 10:04:49;;;;;;;5.57;0.40;;;9.00;99.90;;;;;;4974400;28;20026;-84
2024/03/16 10:07:15;;;;;;;6.72;0.50;;;9.00;99.90;;;;;;4977417;28;20044;-83
2024/03/16 10:09:53;;;;;;;8.02;0.30;;;9.00;99.90;;;;;;4971366;28;20027;-84
2024/03/16 10:12:23;;;;;;;6.90;0.30;;;9.00;99.90;;;;;;4978001;28;20494;-84
2024/03/16 10:15:09;;;;;;;6.90;0.60;;;9.10;99.90;;;;;;4976199;28;20030;-83
2024/03/16 10:17:38;;;;;;;3.30;1.02;;;9.10;99.90;;;;;;4969256;28;20406;-84
2024/03/16 10:20:18;;;;;;;5.68;0.30;;;9.20;99.90;;;;;;4971958;28;20027;-83
2024/03/16 10:22:45;;;;;;;2.03;0.20;;;9.30;99.90;;;;;;4969285;28;20050;-85
2024/03/16 10:25:11;;;;;;;3.38;0.30;;;9.50;99.90;;;;;;4973151;28;20355;-84
2024/03/16 10:27:38;;;;;;;3.95;0.30;;;9.60;99.90;;;;;;4963771;28;20482;-84
2024/03/16 10:30:12;;;;;;;2.97;0.40;;;9.70;99.90;;;;;;4977161;28;20027;-84
2024/03/16 10:32:41;;;;;;;6.13;0.40;;;9.70;99.90;;;;;;4974373;28;20034;-83
2024/03/16 10:35:14;;;;;;;3.97;0.30;;;9.80;99.90;;;;;;4977402;28;20023;-84
2024/03/16 10:37:43;;;;;;;5.05;0.20;;;9.70;99.90;;;;;;4962307;28;20368;-84
2024/03/16 10:40:13;;;;;;;4.63;0.30;;;9.70;99.90;;;;;;4975483;28;20030;-84
2024/03/16 10:42:53;;;;;;;2.90;0.30;;;9.80;99.90;;;;;;4974020;28;20026;-84
2024/03/16 10:45:23;;;;;;;3.72;0.30;;;9.80;99.90;;;;;;4975335;28;20065;-85
2024/03/16 10:47:51;;;;;;;2.22;0.22;;;9.90;99.90;;;;;;4976597;28;20027;-84
2024/03/16 10:50:24;;;;;;;2.65;0.20;;;10.00;99.90;;;;;;4970830;28;20458;-84
2024/03/16 10:52:52;;;;;;;4.60;0.30;;;10.10;99.90;;;;;;4972198;28;20031;-84
2024/03/16 10:55:23;;;;;;;5.50;0.30;;;10.30;99.90;;;;;;4967700;28;20023;-84
2024/03/16 10:57:50;;;;;;;5.32;0.40;;;10.30;99.90;;;;;;4977067;28;20022;-84
2024/03/16 11:00:29;;;;;;;9.77;0.55;;;10.30;99.90;;;;;;4975833;28;20053;-84
2024/03/16 11:03:00;;;;;;;6.30;0.30;;;10.20;99.90;;;;;;4971278;28;20019;-84
2024/03/16 11:05:37;;;;;;;5.00;0.63;;;10.10;99.90;;;;;;4973237;28;20121;-84
2024/03/16 11:08:14;;;;;;;6.72;0.52;;;10.00;99.90;;;;;;4989977;28;20042;-84
2024/03/16 11:10:42;;;;;;;4.30;0.47;;;10.00;99.90;;;;;;4976232;28;20023;-84
2024/03/16 11:13:17;;;;;;;6.38;0.60;;;10.00;99.90;;;;;;4975331;28;20022;-84
2024/03/16 11:15:47;;;;;;;3.50;0.38;;;10.00;99.90;;;;;;4976485;28;20030;-83
2024/03/16 11:18:16;;;;;;;9.15;0.82;;;10.00;99.90;;;;;;4975888;28;20042;-83
2024/03/16 11:20:50;;;;;;;5.45;0.73;;;10.10;99.90;;;;;;4976258;28;20034;-83
2024/03/16 11:23:25;;;;;;;5.03;0.60;;;10.20;99.90;;;;;;4976134;28;20073;-83
2024/03/16 11:25:51;;;;;;;4.05;0.73;;;10.30;99.90;;;;;;4971312;28;20038;-83
2024/03/16 11:28:18;;;;;;;5.50;0.60;;;10.30;99.90;;;;;;4976009;28;20377;-83
2024/03/16 11:30:47;;;;;;;4.65;0.65;;;10.30;99.90;;;;;;4976345;28;20034;-83
2024/03/16 11:33:14;;;;;;;5.38;0.70;;;10.30;99.90;;;;;;4976262;28;20038;-83
2024/03/16 11:35:40;;;;;;;6.20;0.65;;;10.30;99.90;;;;;;4977659;28;20063;-83
2024/03/16 11:38:10;;;;;;;7.55;0.60;;;10.20;99.90;;;;;;4956785;28;20383;-83
2024/03/16 11:40:37;;;;;;;2.72;0.43;;;10.20;99.90;;;;;;4973319;28;20030;-83
2024/03/16 11:43:04;;;;;;;5.40;0.68;;;10.20;99.90;;;;;;4974226;28;20372;-83
2024/03/16 11:45:33;;;;;;;5.22;0.50;;;10.30;99.90;;;;;;4992699;28;20038;-83
2024/03/16 11:48:00;;;;;;;3.08;0.47;;;10.40;99.90;;;;;;4966888;28;20093;-83
2024/03/16 11:50:26;;;;;;;6.32;0.40;;;10.50;99.90;;;;;;4972512;28;20029;-84
2024/03/16 11:52:52;;;;;;;6.80;0.60;;;10.60;99.90;;;;;;4972271;28;20031;-84
2024/03/16 11:55:21;;;;;;;8.20;0.50;;;10.70;99.90;;;;;;4969346;28;20026;-84
2024/03/16 11:57:47;;;;;;;6.30;0.50;;;10.80;99.90;;;;;;4975510;28;20034;-84
2024/03/16 12:00:14;;;;;;;5.97;0.50;;;10.80;99.90;;;;;;4974483;28;20049;-83
2024/03/16 12:02:40;;;;;;;4.47;0.43;;;10.80;99.90;;;;;;4965535;28;20134;-84
2024/03/16 12:05:09;;;;;;;4.38;0.80;;;10.80;99.90;;;;;;4975136;28;20019;-83
2024/03/16 12:07:35;;;;;;;3.67;0.40;;;10.80;99.90;;;;;;4989927;28;20120;-83
2024/03/16 12:10:04;;;;;;;2.40;0.30;;;10.80;99.90;;;;;;4975347;28;20395;-83
2024/03/16 12:12:30;;;;;;;5.60;0.60;;;10.80;99.90;;;;;;4972063;28;20039;-83
2024/03/16 12:15:17;;;;;;;8.93;0.60;;;10.80;99.90;;;;;;4974621;28;20034;-83
2024/03/16 12:17:48;;;;;;;3.78;0.60;;;10.80;99.90;;;;;;4986876;28;20031;-83
2024/03/16 12:20:17;;;;;;;4.72;0.50;;;10.80;99.90;;;;;;4971406;28;20028;-83
2024/03/16 12:22:44;;;;;;;4.57;0.30;;;10.90;99.90;;;;;;4973168;28;20102;-83
2024/03/16 12:25:10;;;;;;;4.10;0.50;;;11.00;99.90;;;;;;4986891;28;20058;-82
2024/03/16 12:27:41;;;;;;;4.22;0.60;;;11.20;99.90;;;;;;4974251;28;20036;-83
2024/03/16 12:30:10;;;;;;;5.05;0.57;;;11.20;99.90;;;;;;4972044;28;20546;-84
2024/03/16 12:32:35;;;;;;;5.05;0.60;;;11.30;99.90;;;;;;4969384;28;20046;-83
2024/03/16 12:35:04;;;;;;;2.65;0.50;;;11.40;99.90;;;;;;4968430;28;20106;-83
2024/03/16 12:37:29;;;;;;;5.00;0.50;;;11.40;99.90;;;;;;4968902;28;20030;-83
2024/03/16 12:39:57;;;;;;;4.20;0.50;;;11.30;99.90;;;;;;4975014;28;20097;-84
2024/03/16 12:42:23;;;;;;;2.65;0.40;;;11.30;99.90;;;;;;4974005;28;20022;-83
2024/03/16 12:44:49;;;;;;;4.53;0.68;;;11.30;99.90;;;;;;4975429;28;20030;-81
2024/03/16 12:47:15;;;;;;;6.00;0.77;;;11.20;99.90;;;;;;4976714;28;20137;-82
2024/03/16 12:49:42;;;;;;;4.68;0.50;;;11.20;99.90;;;;;;4975783;28;20447;-83
2024/03/16 12:52:10;;;;;;;6.55;0.40;;;11.10;99.90;;;;;;4979902;28;20407;-83
2024/03/16 12:54:36;;;;;;;6.85;0.63;;;11.10;99.90;;;;;;4996854;28;20034;-83